sensor_id;sensor_type;location;lat;lon;timestamp;pressure;altitude;pressure_sealevel;temperature;humidity
75420;BME280;63998;52.488;13.428;2022-11-20T00:00:56;100665.78;;;0.02;84.21
75420;BME280;63998;52.488;13.428;2022-11-20T00:03:24;100664.81;;;-0.02;84.35
75420;BME280;63998;52.488;13.428;2022-11-20T00:05:54;100667.16;;;-0.06;84.08
75420;BME280;63998;52.488;13.428;2022-11-20T00:08:24;100658.81;;;-0.02;84.17
75420;BME280;63998;52.488;13.428;2022-11-20T00:10:49;100658.81;;;-0.02;83.84
75420;BME280;63998;52.488;13.428;2022-11-20T00:13:14;100660.44;;;-0.04;84.55
75420;BME280;63998;52.488;13.428;2022-11-20T00:15:42;100660.44;;;-0.04;84.08
75420;BME280;63998;52.488;13.428;2022-11-20T00:18:12;100656.50;;;0.04;83.92
75420;BME280;63998;52.488;13.428;2022-11-20T00:20:37;100662.44;;;0.03;84.07
75420;BME280;63998;52.488;13.428;2022-11-20T00:23:03;100662.84;;;0.12;84.02
75420;BME280;63998;52.488;13.428;2022-11-20T00:25:28;100656.72;;;0.09;83.96
75420;BME280;63998;52.488;13.428;2022-11-20T00:27:53;100654.47;;;0.16;83.72
75420;BME280;63998;52.488;13.428;2022-11-20T00:30:19;100660.31;;;0.14;82.93
75420;BME280;63998;52.488;13.428;2022-11-20T00:32:49;100661.03;;;0.30;83.41
75420;BME280;63998;52.488;13.428;2022-11-20T00:35:14;100660.81;;;0.05;83.19
75420;BME280;63998;52.488;13.428;2022-11-20T00:37:40;100667.44;;;0.00;82.86
75420;BME280;63998;52.488;13.428;2022-11-20T00:40:08;100664.97;;;0.03;83.08
75420;BME280;63998;52.488;13.428;2022-11-20T00:42:36;100661.91;;;0.10;82.98
75420;BME280;63998;52.488;13.428;2022-11-20T00:45:01;100661.03;;;0.10;82.65
75420;BME280;63998;52.488;13.428;2022-11-20T00:47:26;100663.22;;;0.21;83.06
75420;BME280;63998;52.488;13.428;2022-11-20T00:49:54;100661.72;;;0.26;82.75
75420;BME280;63998;52.488;13.428;2022-11-20T00:52:19;100663.47;;;0.27;82.67
75420;BME280;63998;52.488;13.428;2022-11-20T00:54:47;100662.50;;;0.25;82.42
75420;BME280;63998;52.488;13.428;2022-11-20T00:57:12;100662.06;;;0.15;81.89
75420;BME280;63998;52.488;13.428;2022-11-20T00:59:37;100656.78;;;0.10;82.46
75420;BME280;63998;52.488;13.428;2022-11-20T01:02:05;100661.34;;;0.17;82.16
75420;BME280;63998;52.488;13.428;2022-11-20T01:04:33;100666.81;;;0.26;82.55
75420;BME280;63998;52.488;13.428;2022-11-20T01:06:58;100670.81;;;0.20;82.27
75420;BME280;63998;52.488;13.428;2022-11-20T01:09:26;100666.31;;;0.14;81.98
75420;BME280;63998;52.488;13.428;2022-11-20T01:11:51;100666.22;;;0.13;82.07
75420;BME280;63998;52.488;13.428;2022-11-20T01:14:18;100661.09;;;0.11;82.24
75420;BME280;63998;52.488;13.428;2022-11-20T01:16:46;100659.34;;;0.10;82.27
75420;BME280;63998;52.488;13.428;2022-11-20T01:19:16;100660.94;;;0.08;82.08
75420;BME280;63998;52.488;13.428;2022-11-20T01:21:43;100654.97;;;0.08;82.43
75420;BME280;63998;52.488;13.428;2022-11-20T01:24:14;100656.09;;;0.14;82.36
75420;BME280;63998;52.488;13.428;2022-11-20T01:26:43;100655.34;;;0.17;82.04
75420;BME280;63998;52.488;13.428;2022-11-20T01:29:14;100650.97;;;0.14;82.51
75420;BME280;63998;52.488;13.428;2022-11-20T01:31:40;100650.59;;;0.05;82.02
75420;BME280;63998;52.488;13.428;2022-11-20T01:34:10;100648.13;;;0.07;82.14
75420;BME280;63998;52.488;13.428;2022-11-20T01:36:37;100652.09;;;0.00;82.26
75420;BME280;63998;52.488;13.428;2022-11-20T01:39:05;100646.72;;;-0.06;82.58
75420;BME280;63998;52.488;13.428;2022-11-20T01:41:32;100648.84;;;0.04;82.42
75420;BME280;63998;52.488;13.428;2022-11-20T01:44:22;100655.72;;;0.05;82.21
75420;BME280;63998;52.488;13.428;2022-11-20T01:46:59;100647.00;;;0.00;82.05
75420;BME280;63998;52.488;13.428;2022-11-20T01:52:01;100653.16;;;0.05;82.45
75420;BME280;63998;52.488;13.428;2022-11-20T01:54:38;100641.06;;;0.01;81.86
75420;BME280;63998;52.488;13.428;2022-11-20T01:57:09;100649.00;;;0.07;82.22
75420;BME280;63998;52.488;13.428;2022-11-20T01:59:39;100640.94;;;-0.02;81.79
75420;BME280;63998;52.488;13.428;2022-11-20T02:02:09;100645.25;;;-0.01;81.62
75420;BME280;63998;52.488;13.428;2022-11-20T02:04:36;100640.38;;;0.05;81.77
75420;BME280;63998;52.488;13.428;2022-11-20T02:07:04;100647.38;;;0.09;81.46
75420;BME280;63998;52.488;13.428;2022-11-20T02:09:30;100638.13;;;0.11;81.44
75420;BME280;63998;52.488;13.428;2022-11-20T02:11:56;100639.53;;;0.05;80.95
75420;BME280;63998;52.488;13.428;2022-11-20T02:14:23;100634.91;;;-0.04;81.48
75420;BME280;63998;52.488;13.428;2022-11-20T02:16:52;100636.38;;;-0.09;81.11
75420;BME280;63998;52.488;13.428;2022-11-20T02:19:26;100627.78;;;-0.11;81.07
75420;BME280;63998;52.488;13.428;2022-11-20T02:24:41;100633.03;;;-0.08;81.13
75420;BME280;63998;52.488;13.428;2022-11-20T02:27:12;100622.94;;;-0.05;81.49
75420;BME280;63998;52.488;13.428;2022-11-20T02:29:57;100623.31;;;-0.17;80.91
75420;BME280;63998;52.488;13.428;2022-11-20T02:32:35;100622.44;;;-0.17;81.07
75420;BME280;63998;52.488;13.428;2022-11-20T02:37:46;100624.19;;;-0.16;81.20
75420;BME280;63998;52.488;13.428;2022-11-20T02:40:11;100627.66;;;-0.14;81.27
75420;BME280;63998;52.488;13.428;2022-11-20T02:42:37;100619.31;;;-0.10;80.76
75420;BME280;63998;52.488;13.428;2022-11-20T02:45:05;100619.31;;;-0.10;81.32
75420;BME280;63998;52.488;13.428;2022-11-20T02:47:31;100627.97;;;-0.07;80.61
75420;BME280;63998;52.488;13.428;2022-11-20T02:49:56;100616.69;;;-0.12;80.48
75420;BME280;63998;52.488;13.428;2022-11-20T02:52:25;100626.16;;;-0.09;80.64
75420;BME280;63998;52.488;13.428;2022-11-20T02:54:50;100620.69;;;-0.18;80.48
75420;BME280;63998;52.488;13.428;2022-11-20T02:57:18;100622.56;;;-0.14;80.73
75420;BME280;63998;52.488;13.428;2022-11-20T02:59:51;100620.88;;;-0.14;80.76
75420;BME280;63998;52.488;13.428;2022-11-20T03:02:16;100616.09;;;-0.06;80.76
75420;BME280;63998;52.488;13.428;2022-11-20T03:04:41;100622.09;;;0.15;81.65
75420;BME280;63998;52.488;13.428;2022-11-20T03:07:07;100625.81;;;0.03;80.40
75420;BME280;63998;52.488;13.428;2022-11-20T03:09:36;100616.03;;;-0.08;80.00
75420;BME280;63998;52.488;13.428;2022-11-20T03:12:01;100612.47;;;-0.11;79.85
75420;BME280;63998;52.488;13.428;2022-11-20T03:14:26;100615.16;;;-0.08;79.85
75420;BME280;63998;52.488;13.428;2022-11-20T03:16:55;100613.47;;;-0.08;80.19
75420;BME280;63998;52.488;13.428;2022-11-20T03:19:21;100608.75;;;0.02;80.14
75420;BME280;63998;52.488;13.428;2022-11-20T03:21:46;100598.44;;;-0.02;80.08
75420;BME280;63998;52.488;13.428;2022-11-20T03:24:12;100604.34;;;-0.03;80.17
75420;BME280;63998;52.488;13.428;2022-11-20T03:26:38;100603.72;;;0.03;80.21
75420;BME280;63998;52.488;13.428;2022-11-20T03:29:04;100602.25;;;-0.11;79.62
75420;BME280;63998;52.488;13.428;2022-11-20T03:31:35;100603.47;;;-0.22;79.79
75420;BME280;63998;52.488;13.428;2022-11-20T03:34:02;100603.47;;;-0.22;80.12
75420;BME280;63998;52.488;13.428;2022-11-20T03:36:28;100600.06;;;-0.23;79.97
75420;BME280;63998;52.488;13.428;2022-11-20T03:38:55;100602.59;;;-0.23;80.24
75420;BME280;63998;52.488;13.428;2022-11-20T03:41:28;100592.97;;;-0.09;80.23
75420;BME280;63998;52.488;13.428;2022-11-20T03:43:59;100601.44;;;0.09;79.93
75420;BME280;63998;52.488;13.428;2022-11-20T03:46:28;100599.91;;;0.14;79.88
75420;BME280;63998;52.488;13.428;2022-11-20T03:48:54;100593.19;;;0.16;79.98
75420;BME280;63998;52.488;13.428;2022-11-20T03:51:20;100592.59;;;0.22;79.66
75420;BME280;63998;52.488;13.428;2022-11-20T03:53:48;100597.19;;;0.30;79.44
75420;BME280;63998;52.488;13.428;2022-11-20T03:56:16;100595.69;;;0.35;79.47
75420;BME280;63998;52.488;13.428;2022-11-20T03:58:42;100601.94;;;0.21;79.20
75420;BME280;63998;52.488;13.428;2022-11-20T04:01:17;100599.44;;;0.23;78.58
75420;BME280;63998;52.488;13.428;2022-11-20T04:03:43;100594.56;;;0.29;79.26
75420;BME280;63998;52.488;13.428;2022-11-20T04:06:13;100591.72;;;0.21;79.19
75420;BME280;63998;52.488;13.428;2022-11-20T04:08:40;100596.44;;;0.12;78.88
75420;BME280;63998;52.488;13.428;2022-11-20T04:13:47;100591.94;;;0.07;78.76
75420;BME280;63998;52.488;13.428;2022-11-20T04:16:13;100584.22;;;0.05;79.06
75420;BME280;63998;52.488;13.428;2022-11-20T04:18:41;100589.47;;;-0.13;78.80
75420;BME280;63998;52.488;13.428;2022-11-20T04:21:08;100588.16;;;-0.22;78.84
75420;BME280;63998;52.488;13.428;2022-11-20T04:23:36;100593.84;;;-0.29;79.27
75420;BME280;63998;52.488;13.428;2022-11-20T04:26:07;100596.66;;;-0.43;79.09
75420;BME280;63998;52.488;13.428;2022-11-20T04:28:32;100591.34;;;-0.47;79.47
75420;BME280;63998;52.488;13.428;2022-11-20T04:31:12;100592.94;;;-0.49;79.72
75420;BME280;63998;52.488;13.428;2022-11-20T04:33:39;100605.66;;;-0.51;79.56
75420;BME280;63998;52.488;13.428;2022-11-20T04:36:14;100599.56;;;-0.54;80.04
75420;BME280;63998;52.488;13.428;2022-11-20T04:38:40;100592.94;;;-0.49;80.18
75420;BME280;63998;52.488;13.428;2022-11-20T04:41:07;100588.72;;;-0.49;80.17
75420;BME280;63998;52.488;13.428;2022-11-20T04:43:36;100581.75;;;-0.53;80.30
75420;BME280;63998;52.488;13.428;2022-11-20T04:46:03;100588.72;;;-0.49;80.48
75420;BME280;63998;52.488;13.428;2022-11-20T04:48:31;100587.91;;;-0.48;80.42
75420;BME280;63998;52.488;13.428;2022-11-20T04:50:56;100582.63;;;-0.52;80.36
75420;BME280;63998;52.488;13.428;2022-11-20T04:53:23;100580.28;;;-0.48;80.33
75420;BME280;63998;52.488;13.428;2022-11-20T04:55:49;100581.13;;;-0.47;80.49
75420;BME280;63998;52.488;13.428;2022-11-20T04:58:14;100578.41;;;-0.52;80.54
75420;BME280;63998;52.488;13.428;2022-11-20T05:00:40;100581.03;;;-0.50;80.58
75420;BME280;63998;52.488;13.428;2022-11-20T05:03:06;100573.41;;;-0.49;80.87
75420;BME280;63998;52.488;13.428;2022-11-20T05:05:33;100577.59;;;-0.51;80.42
75420;BME280;63998;52.488;13.428;2022-11-20T05:07:59;100568.75;;;-0.40;80.88
75420;BME280;63998;52.488;13.428;2022-11-20T05:10:27;100565.25;;;-0.42;80.86
75420;BME280;63998;52.488;13.428;2022-11-20T05:12:56;100560.28;;;-0.39;80.96
75420;BME280;63998;52.488;13.428;2022-11-20T05:15:24;100563.75;;;-0.37;80.62
75420;BME280;63998;52.488;13.428;2022-11-20T05:17:52;100557.03;;;-0.34;80.56
75420;BME280;63998;52.488;13.428;2022-11-20T05:20:20;100548.91;;;-0.26;80.42
75420;BME280;63998;52.488;13.428;2022-11-20T05:22:48;100544.72;;;-0.24;80.50
75420;BME280;63998;52.488;13.428;2022-11-20T05:25:13;100552.44;;;-0.22;80.21
75420;BME280;63998;52.488;13.428;2022-11-20T05:27:38;100547.59;;;-0.16;80.45
75420;BME280;63998;52.488;13.428;2022-11-20T05:30:04;100546.81;;;-0.15;80.35
75420;BME280;63998;52.488;13.428;2022-11-20T05:32:32;100546.97;;;-0.11;80.43
75420;BME280;63998;52.488;13.428;2022-11-20T05:35:00;100542.44;;;0.03;80.75
75420;BME280;63998;52.488;13.428;2022-11-20T05:37:25;100543.13;;;-0.01;80.38
75420;BME280;63998;52.488;13.428;2022-11-20T05:39:53;100545.25;;;0.09;79.58
75420;BME280;63998;52.488;13.428;2022-11-20T05:42:18;100542.25;;;0.19;79.89
75420;BME280;63998;52.488;13.428;2022-11-20T05:44:57;100548.38;;;0.23;79.81
75420;BME280;63998;52.488;13.428;2022-11-20T05:47:23;100543.88;;;0.17;79.33
75420;BME280;63998;52.488;13.428;2022-11-20T05:49:53;100544.47;;;0.32;79.56
75420;BME280;63998;52.488;13.428;2022-11-20T05:52:20;100541.59;;;0.25;79.36
75420;BME280;63998;52.488;13.428;2022-11-20T05:54:46;100539.25;;;0.29;79.09
75420;BME280;63998;52.488;13.428;2022-11-20T05:57:11;100548.06;;;0.38;79.56
75420;BME280;63998;52.488;13.428;2022-11-20T05:59:36;100542.41;;;0.45;79.02
75420;BME280;63998;52.488;13.428;2022-11-20T06:02:07;100541.00;;;0.30;78.75
75420;BME280;63998;52.488;13.428;2022-11-20T06:04:39;100544.22;;;0.26;78.10
75420;BME280;63998;52.488;13.428;2022-11-20T06:07:05;100545.22;;;0.30;78.49
75420;BME280;63998;52.488;13.428;2022-11-20T06:09:31;100541.88;;;0.31;78.70
75420;BME280;63998;52.488;13.428;2022-11-20T06:11:56;100547.97;;;0.34;79.05
75420;BME280;63998;52.488;13.428;2022-11-20T06:14:22;100540.06;;;0.51;79.28
75420;BME280;63998;52.488;13.428;2022-11-20T06:16:47;100533.75;;;0.63;79.98
75420;BME280;63998;52.488;13.428;2022-11-20T06:19:12;100535.81;;;0.72;79.76
75420;BME280;63998;52.488;13.428;2022-11-20T06:21:38;100533.69;;;0.62;79.05
75420;BME280;63998;52.488;13.428;2022-11-20T06:24:03;100529.06;;;0.74;78.12
75420;BME280;63998;52.488;13.428;2022-11-20T06:26:30;100526.75;;;0.58;77.65
75420;BME280;63998;52.488;13.428;2022-11-20T06:28:55;100528.25;;;0.53;77.59
75420;BME280;63998;52.488;13.428;2022-11-20T06:31:22;100533.00;;;0.44;77.73
75420;BME280;63998;52.488;13.428;2022-11-20T06:33:49;100527.53;;;0.34;77.54
75420;BME280;63998;52.488;13.428;2022-11-20T06:36:16;100537.63;;;0.31;77.99
75420;BME280;63998;52.488;13.428;2022-11-20T06:38:42;100536.38;;;0.43;78.33
75420;BME280;63998;52.488;13.428;2022-11-20T06:41:12;100539.50;;;0.35;77.71
75420;BME280;63998;52.488;13.428;2022-11-20T06:43:40;100536.38;;;0.43;77.54
75420;BME280;63998;52.488;13.428;2022-11-20T06:46:10;100532.41;;;0.28;77.80
75420;BME280;63998;52.488;13.428;2022-11-20T06:48:36;100533.66;;;0.17;77.23
75420;BME280;63998;52.488;13.428;2022-11-20T06:51:06;100531.78;;;0.13;77.55
75420;BME280;63998;52.488;13.428;2022-11-20T06:53:32;100532.25;;;0.25;78.41
75420;BME280;63998;52.488;13.428;2022-11-20T06:56:00;100530.66;;;0.27;79.36
75420;BME280;63998;52.488;13.428;2022-11-20T06:58:30;100534.53;;;0.18;78.24
75420;BME280;63998;52.488;13.428;2022-11-20T07:01:06;100530.28;;;0.18;77.87
75420;BME280;63998;52.488;13.428;2022-11-20T07:03:35;100525.19;;;0.18;78.60
75420;BME280;63998;52.488;13.428;2022-11-20T07:06:05;100532.41;;;0.28;79.00
75420;BME280;63998;52.488;13.428;2022-11-20T07:08:31;100525.53;;;0.27;78.10
75420;BME280;63998;52.488;13.428;2022-11-20T07:11:00;100520.56;;;0.30;77.92
75420;BME280;63998;52.488;13.428;2022-11-20T07:13:28;100525.31;;;0.21;77.38
75420;BME280;63998;52.488;13.428;2022-11-20T07:15:54;100515.22;;;0.04;77.93
75420;BME280;63998;52.488;13.428;2022-11-20T07:18:20;100523.69;;;0.03;78.09
75420;BME280;63998;52.488;13.428;2022-11-20T07:20:46;100521.94;;;0.22;78.49
75420;BME280;63998;52.488;13.428;2022-11-20T07:23:11;100521.81;;;0.19;78.47
75420;BME280;63998;52.488;13.428;2022-11-20T07:25:36;100520.81;;;0.16;78.38
75420;BME280;63998;52.488;13.428;2022-11-20T07:28:02;100523.44;;;0.17;78.08
75420;BME280;63998;52.488;13.428;2022-11-20T07:30:32;100529.44;;;-0.03;77.76
75420;BME280;63998;52.488;13.428;2022-11-20T07:32:57;100527.13;;;0.03;78.08
75420;BME280;63998;52.488;13.428;2022-11-20T07:35:25;100527.91;;;0.02;77.92
75420;BME280;63998;52.488;13.428;2022-11-20T07:37:50;100527.31;;;-0.13;77.67
75420;BME280;63998;52.488;13.428;2022-11-20T07:40:16;100533.91;;;-0.18;77.84
75420;BME280;63998;52.488;13.428;2022-11-20T07:42:53;100526.84;;;-0.24;77.78
75420;BME280;63998;52.488;13.428;2022-11-20T07:45:21;100526.53;;;-0.31;77.97
75420;BME280;63998;52.488;13.428;2022-11-20T07:47:47;100534.78;;;-0.39;78.11
75420;BME280;63998;52.488;13.428;2022-11-20T07:50:13;100531.13;;;-0.44;78.24
75420;BME280;63998;52.488;13.428;2022-11-20T07:52:42;100530.06;;;-0.49;78.74
75420;BME280;63998;52.488;13.428;2022-11-20T07:55:08;100539.22;;;-0.54;78.95
75420;BME280;63998;52.488;13.428;2022-11-20T07:57:36;100524.84;;;-0.52;79.16
75420;BME280;63998;52.488;13.428;2022-11-20T08:00:03;100517.78;;;-0.57;78.92
75420;BME280;63998;52.488;13.428;2022-11-20T08:02:29;100518.94;;;-0.51;79.11
75420;BME280;63998;52.488;13.428;2022-11-20T08:04:55;100518.94;;;-0.51;78.69
75420;BME280;63998;52.488;13.428;2022-11-20T08:07:22;100518.94;;;-0.51;78.83
75420;BME280;63998;52.488;13.428;2022-11-20T08:09:48;100518.94;;;-0.51;79.13
75420;BME280;63998;52.488;13.428;2022-11-20T08:12:18;100514.09;;;-0.45;79.42
75420;BME280;63998;52.488;13.428;2022-11-20T08:15:04;100510.88;;;-0.41;79.12
75420;BME280;63998;52.488;13.428;2022-11-20T08:17:30;100508.63;;;-0.33;79.26
75420;BME280;63998;52.488;13.428;2022-11-20T08:19:55;100516.94;;;-0.37;79.20
75420;BME280;63998;52.488;13.428;2022-11-20T08:22:20;100511.25;;;-0.31;79.00
75420;BME280;63998;52.488;13.428;2022-11-20T08:24:46;100511.59;;;-0.22;79.52
75420;BME280;63998;52.488;13.428;2022-11-20T08:27:11;100508.53;;;-0.15;78.91
75420;BME280;63998;52.488;13.428;2022-11-20T08:29:37;100508.88;;;-0.06;78.71
75420;BME280;63998;52.488;13.428;2022-11-20T08:32:02;100504.38;;;-0.12;78.90
75420;BME280;63998;52.488;13.428;2022-11-20T08:34:27;100504.66;;;-0.06;78.53
75420;BME280;63998;52.488;13.428;2022-11-20T08:36:53;100505.53;;;-0.05;78.30
75420;BME280;63998;52.488;13.428;2022-11-20T08:39:18;100498.66;;;-0.06;78.40
75420;BME280;63998;52.488;13.428;2022-11-20T08:41:44;100498.00;;;-0.02;78.59
75420;BME280;63998;52.488;13.428;2022-11-20T08:44:09;100503.03;;;-0.04;78.57
75420;BME280;63998;52.488;13.428;2022-11-20T08:46:38;100501.91;;;-0.10;78.70
75420;BME280;63998;52.488;13.428;2022-11-20T08:49:08;100497.38;;;-0.17;78.67
75420;BME280;63998;52.488;13.428;2022-11-20T08:51:37;100494.94;;;-0.14;78.94
75420;BME280;63998;52.488;13.428;2022-11-20T08:54:04;100496.78;;;-0.10;78.92
75420;BME280;63998;52.488;13.428;2022-11-20T08:56:32;100494.31;;;-0.09;78.69
75420;BME280;63998;52.488;13.428;2022-11-20T08:58:57;100493.69;;;-0.03;78.69
75420;BME280;63998;52.488;13.428;2022-11-20T09:01:27;100487.47;;;0.11;79.10
75420;BME280;63998;52.488;13.428;2022-11-20T09:03:55;100488.94;;;0.06;78.53
75420;BME280;63998;52.488;13.428;2022-11-20T09:06:24;100489.22;;;0.12;78.46
75420;BME280;63998;52.488;13.428;2022-11-20T09:08:53;100499.16;;;0.06;78.30
75420;BME280;63998;52.488;13.428;2022-11-20T09:11:18;100507.50;;;0.02;78.36
75420;BME280;63998;52.488;13.428;2022-11-20T09:13:44;100497.19;;;-0.01;78.73
75420;BME280;63998;52.488;13.428;2022-11-20T09:16:11;100501.09;;;-0.09;78.65
75420;BME280;63998;52.488;13.428;2022-11-20T09:18:37;100496.94;;;-0.07;79.08
75420;BME280;63998;52.488;13.428;2022-11-20T09:21:11;100500.28;;;-0.08;78.88
75420;BME280;63998;52.488;13.428;2022-11-20T09:23:38;100508.75;;;-0.09;78.87
75420;BME280;63998;52.488;13.428;2022-11-20T09:26:12;100500.41;;;-0.05;78.73
75420;BME280;63998;52.488;13.428;2022-11-20T09:28:40;100498.09;;;0.01;78.84
75420;BME280;63998;52.488;13.428;2022-11-20T09:31:17;100506.19;;;-0.09;78.70
75420;BME280;63998;52.488;13.428;2022-11-20T09:33:46;100505.25;;;-0.11;78.33
75420;BME280;63998;52.488;13.428;2022-11-20T09:36:16;100507.00;;;-0.10;78.90
75420;BME280;63998;52.488;13.428;2022-11-20T09:38:46;100505.38;;;-0.08;78.75
75420;BME280;63998;52.488;13.428;2022-11-20T09:44:23;100502.16;;;-0.04;78.04
75420;BME280;63998;52.488;13.428;2022-11-20T09:46:53;100500.06;;;-0.14;78.16
75420;BME280;63998;52.488;13.428;2022-11-20T09:49:32;100494.94;;;-0.14;78.19
75420;BME280;63998;52.488;13.428;2022-11-20T09:52:31;100499.19;;;-0.15;77.75
75420;BME280;63998;52.488;13.428;2022-11-20T09:55:04;100498.31;;;-0.15;77.34
75420;BME280;63998;52.488;13.428;2022-11-20T09:57:36;100488.72;;;-0.21;77.58
75420;BME280;63998;52.488;13.428;2022-11-20T10:00:05;100491.47;;;-0.16;77.39
75420;BME280;63998;52.488;13.428;2022-11-20T10:02:58;100496.44;;;-0.19;77.11
75420;BME280;63998;52.488;13.428;2022-11-20T10:05:36;100491.59;;;-0.13;77.15
75420;BME280;63998;52.488;13.428;2022-11-20T10:08:17;100490.81;;;-0.11;77.47
75420;BME280;63998;52.488;13.428;2022-11-20T10:10:47;100479.63;;;-0.14;76.87
75420;BME280;63998;52.488;13.428;2022-11-20T10:13:27;100479.31;;;-0.01;76.86
75420;BME280;63998;52.488;13.428;2022-11-20T10:18:48;100485.72;;;-0.11;76.94
75420;BME280;63998;52.488;13.428;2022-11-20T10:21:33;100486.34;;;-0.16;77.08
75420;BME280;63998;52.488;13.428;2022-11-20T10:24:17;100476.63;;;-0.04;76.91
75420;BME280;63998;52.488;13.428;2022-11-20T10:26:58;100478.13;;;-0.09;77.24
75420;BME280;63998;52.488;13.428;2022-11-20T10:29:41;100480.50;;;-0.14;77.31
75420;BME280;63998;52.488;13.428;2022-11-20T10:32:16;100487.16;;;-0.17;77.47
75420;BME280;63998;52.488;13.428;2022-11-20T10:37:37;100480.75;;;-0.28;77.78
75420;BME280;63998;52.488;13.428;2022-11-20T10:40:20;100458.72;;;-0.26;78.01
75420;BME280;63998;52.488;13.428;2022-11-20T10:45:52;100456.59;;;-0.16;78.07
75420;BME280;63998;52.488;13.428;2022-11-20T10:48:24;100453.66;;;-0.04;77.84
75420;BME280;63998;52.488;13.428;2022-11-20T10:53:49;100455.94;;;0.11;77.52
75420;BME280;63998;52.488;13.428;2022-11-20T10:56:31;100442.31;;;0.10;77.26
75420;BME280;63998;52.488;13.428;2022-11-20T10:59:35;100451.94;;;0.17;77.22
75420;BME280;63998;52.488;13.428;2022-11-20T11:02:24;100442.06;;;0.26;77.47
75420;BME280;63998;52.488;13.428;2022-11-20T11:04:51;100454.28;;;0.33;77.37
75420;BME280;63998;52.488;13.428;2022-11-20T11:07:27;100442.31;;;0.32;76.92
75420;BME280;63998;52.488;13.428;2022-11-20T11:09:56;100446.03;;;0.41;76.84
75420;BME280;63998;52.488;13.428;2022-11-20T11:12:24;100454.41;;;0.37;76.29
75420;BME280;63998;52.488;13.428;2022-11-20T11:14:56;100456.47;;;0.47;76.04
75420;BME280;63998;52.488;13.428;2022-11-20T11:17:34;100454.41;;;0.37;75.87
75420;BME280;63998;52.488;13.428;2022-11-20T11:20:04;100451.88;;;0.60;76.14
75420;BME280;63998;52.488;13.428;2022-11-20T11:22:39;100453.03;;;0.68;75.88
75420;BME280;63998;52.488;13.428;2022-11-20T11:25:19;100437.88;;;0.51;76.04
75420;BME280;63998;52.488;13.428;2022-11-20T11:27:48;100439.88;;;0.58;75.70
75420;BME280;63998;52.488;13.428;2022-11-20T11:30:19;100436.75;;;0.66;75.71
75420;BME280;63998;52.488;13.428;2022-11-20T11:32:45;100438.44;;;0.66;75.93
75420;BME280;63998;52.488;13.428;2022-11-20T11:35:28;100442.31;;;0.55;75.73
75420;BME280;63998;52.488;13.428;2022-11-20T11:38:12;100431.16;;;0.53;75.64
75420;BME280;63998;52.488;13.428;2022-11-20T11:40:40;100432.88;;;0.54;75.50
75420;BME280;63998;52.488;13.428;2022-11-20T11:43:18;100422.78;;;0.57;76.15
75420;BME280;63998;52.488;13.428;2022-11-20T11:46:20;100423.66;;;0.57;75.59
75420;BME280;63998;52.488;13.428;2022-11-20T11:54:47;100426.28;;;0.59;75.73
75420;BME280;63998;52.488;13.428;2022-11-20T11:57:32;100416.06;;;0.59;75.93
75420;BME280;63998;52.488;13.428;2022-11-20T12:00:08;100417.69;;;0.57;76.27
75420;BME280;63998;52.488;13.428;2022-11-20T12:05:18;100416.94;;;0.59;76.27
75420;BME280;63998;52.488;13.428;2022-11-20T12:07:52;100424.09;;;0.69;76.65
75420;BME280;63998;52.488;13.428;2022-11-20T12:10:44;100416.06;;;0.59;76.75
75420;BME280;63998;52.488;13.428;2022-11-20T12:15:59;100409.19;;;0.58;77.74
75420;BME280;63998;52.488;13.428;2022-11-20T12:18:25;100408.38;;;0.59;76.87
75420;BME280;63998;52.488;13.428;2022-11-20T12:20:57;100412.56;;;0.57;77.05
75420;BME280;63998;52.488;13.428;2022-11-20T12:26:34;100408.03;;;0.72;76.93
75420;BME280;63998;52.488;13.428;2022-11-20T12:28:59;100401.72;;;0.86;76.79
75420;BME280;63998;52.488;13.428;2022-11-20T12:31:47;100393.50;;;0.95;76.02
75420;BME280;63998;52.488;13.428;2022-11-20T12:39:34;100402.34;;;1.04;75.28
75420;BME280;63998;52.488;13.428;2022-11-20T12:50:24;100382.53;;;1.24;74.17
75420;BME280;63998;52.488;13.428;2022-11-20T12:53:10;100384.56;;;1.33;73.93
75420;BME280;63998;52.488;13.428;2022-11-20T12:55:49;100381.19;;;1.34;74.49
75420;BME280;63998;52.488;13.428;2022-11-20T13:01:32;100380.78;;;1.22;74.40
75420;BME280;63998;52.488;13.428;2022-11-20T13:06:43;100379.97;;;1.24;73.96
75420;BME280;63998;52.488;13.428;2022-11-20T13:09:11;100377.47;;;1.26;74.09
75420;BME280;63998;52.488;13.428;2022-11-20T13:12:06;100372.75;;;1.38;74.66
75420;BME280;63998;52.488;13.428;2022-11-20T13:14:50;100348.94;;;1.66;74.13
75420;BME280;63998;52.488;13.428;2022-11-20T13:17:33;100357.88;;;2.67;71.20
75420;BME280;63998;52.488;13.428;2022-11-20T13:20:04;100356.94;;;2.33;70.02
75420;BME280;63998;52.488;13.428;2022-11-20T13:27:48;100347.63;;;1.78;72.32
75420;BME280;63998;52.488;13.428;2022-11-20T13:30:19;100355.13;;;1.72;72.55
75420;BME280;63998;52.488;13.428;2022-11-20T13:32:52;100351.81;;;1.50;73.13
75420;BME280;63998;52.488;13.428;2022-11-20T13:35:32;100349.53;;;1.57;73.83
75420;BME280;63998;52.488;13.428;2022-11-20T13:38:10;100346.06;;;2.12;72.74
75420;BME280;63998;52.488;13.428;2022-11-20T13:40:38;100343.81;;;2.52;71.87
75420;BME280;63998;52.488;13.428;2022-11-20T13:45:36;100341.47;;;3.62;67.04
75420;BME280;63998;52.488;13.428;2022-11-20T13:48:04;100332.59;;;3.48;66.36
75420;BME280;63998;52.488;13.428;2022-11-20T13:55:42;100340.38;;;2.52;70.26
75420;BME280;63998;52.488;13.428;2022-11-20T14:01:23;100342.38;;;2.02;72.12
75420;BME280;63998;52.488;13.428;2022-11-20T14:03:49;100350.38;;;1.58;73.61
75420;BME280;63998;52.488;13.428;2022-11-20T14:06:25;100347.00;;;1.32;74.73
75420;BME280;63998;52.488;13.428;2022-11-20T14:08:55;100352.69;;;1.23;75.71
75420;BME280;63998;52.488;13.428;2022-11-20T14:11:26;100357.13;;;1.29;75.82
75420;BME280;63998;52.488;13.428;2022-11-20T14:14:20;100363.88;;;1.27;76.20